createdAt,value
2022-08-10T00:01:52.284Z,99817.58
2022-08-10T00:04:24.794Z,99817.68
2022-08-10T00:06:55.531Z,99818.66
2022-08-10T00:09:25.497Z,99815.40
2022-08-10T00:11:53.425Z,99813.64
2022-08-10T00:14:21.486Z,99813.48
2022-08-10T00:16:49.688Z,99814.86
2022-08-10T00:19:18.335Z,99816.04
2022-08-10T00:21:47.370Z,99815.77
2022-08-10T00:24:16.334Z,99814.59
2022-08-10T00:27:52.007Z,99815.36
2022-08-10T00:29:32.490Z,99810.39
2022-08-10T00:32:00.458Z,99811.98
2022-08-10T00:34:30.076Z,99814.45
2022-08-10T00:36:59.171Z,99817.48
2022-08-10T00:39:28.767Z,99819.71
2022-08-10T00:42:06.866Z,99819.35
2022-08-10T00:44:40.449Z,99813.48
2022-08-10T00:47:16.278Z,99815.39
2022-08-10T00:49:57.725Z,99813.38
2022-08-10T00:52:27.042Z,99815.13
2022-08-10T00:54:55.755Z,99808.98
2022-08-10T00:57:25.583Z,99809.95
2022-08-10T00:59:58.410Z,99806.02
2022-08-10T01:02:32.511Z,99803.63
2022-08-10T01:05:05.222Z,99806.23
2022-08-10T01:08:01.532Z,99806.25
2022-08-10T01:10:38.935Z,99804.32
2022-08-10T01:13:30.919Z,99805.86
2022-08-10T01:16:05.481Z,99805.65
2022-08-10T01:18:42.657Z,99802.73
2022-08-10T01:21:56.580Z,99799.83
2022-08-10T01:24:43.643Z,99802.73
2022-08-10T01:27:44.495Z,99807.39
2022-08-10T01:30:14.413Z,99807.87
2022-08-10T01:33:00.886Z,99813.02
2022-08-10T01:35:53.184Z,99810.20
2022-08-10T01:38:29.044Z,99808.94
2022-08-10T01:41:11.150Z,99814.73
2022-08-10T01:43:54.165Z,99813.16
2022-08-10T01:46:24.488Z,99816.54
2022-08-10T01:48:56.007Z,99812.66
2022-08-10T01:51:31.197Z,99813.11
2022-08-10T01:54:02.564Z,99811.30
2022-08-10T01:56:33.605Z,99811.61
2022-08-10T01:59:09.557Z,99808.69
2022-08-10T02:01:42.087Z,99812.35
2022-08-10T02:04:12.289Z,99814.08
2022-08-10T02:06:51.265Z,99812.54
2022-08-10T02:09:22.187Z,99817.04
2022-08-10T02:11:55.732Z,99819.77
2022-08-10T02:14:42.025Z,99818.73
2022-08-10T02:17:57.599Z,99817.65
2022-08-10T02:20:07.769Z,99816.96
2022-08-10T02:22:39.318Z,99819.86
2022-08-10T02:25:09.102Z,99828.90
2022-08-10T02:27:40.909Z,99827.24
2022-08-10T02:30:10.403Z,99830.76
2022-08-10T02:32:39.135Z,99828.92
2022-08-10T02:35:14.776Z,99828.67
2022-08-10T02:37:53.290Z,99828.90
2022-08-10T02:45:02.054Z,99827.49
2022-08-10T02:45:21.241Z,99828.14
2022-08-10T02:46:20.962Z,99824.86
2022-08-10T02:48:59.758Z,99823.23
2022-08-10T02:52:06.408Z,99821.13
2022-08-10T02:54:32.948Z,99823.88
2022-08-10T02:57:14.278Z,99826.23
2022-08-10T02:59:45.966Z,99826.67
2022-08-10T03:02:20.115Z,99827.75
2022-08-10T03:04:55.542Z,99829.52
2022-08-10T03:07:43.698Z,99826.83
2022-08-10T03:10:21.583Z,99832.81
2022-08-10T03:12:52.787Z,99836.53
2022-08-10T03:15:22.288Z,99835.71
2022-08-10T03:17:57.637Z,99834.17
2022-08-10T03:20:37.896Z,99836.16
2022-08-10T03:23:13.525Z,99828.91
2022-08-10T03:25:53.396Z,99832.78
2022-08-10T03:28:24.771Z,99834.04
2022-08-10T03:30:53.614Z,99831.09
2022-08-10T03:33:22.820Z,99841.24
2022-08-10T03:36:43.118Z,99839.35
2022-08-10T03:38:44.535Z,99845.98
2022-08-10T03:41:16.322Z,99846.11
2022-08-10T03:43:49.775Z,99847.56
2022-08-10T03:46:21.340Z,99851.54
2022-08-10T03:48:53.344Z,99860.70
2022-08-10T03:51:22.542Z,99863.23
2022-08-10T03:54:04.308Z,99860.38
2022-08-10T03:56:37.172Z,99855.89
2022-08-10T03:59:10.978Z,99855.94
2022-08-10T04:02:46.317Z,99855.37
2022-08-10T04:04:27.622Z,99856.50
2022-08-10T04:07:01.518Z,99859.20
2022-08-10T04:09:56.016Z,99851.38
2022-08-10T04:12:20.597Z,99853.65
2022-08-10T04:14:51.181Z,99858.73
2022-08-10T04:17:59.366Z,99855.39
2022-08-10T04:20:38.346Z,99853.13
2022-08-10T04:23:18.750Z,99853.63
2022-08-10T04:25:46.692Z,99851.71
2022-08-10T04:28:14.752Z,99857.40
2022-08-10T04:30:44.698Z,99857.93
2022-08-10T04:33:15.243Z,99861.56
2022-08-10T04:35:45.331Z,99863.43
2022-08-10T04:38:14.725Z,99864.41
2022-08-10T04:40:43.719Z,99866.71
2022-08-10T04:43:13.067Z,99867.19
2022-08-10T04:45:50.566Z,99862.05
2022-08-10T04:48:42.474Z,99870.39
2022-08-10T04:51:18.002Z,99870.61
2022-08-10T04:54:04.905Z,99872.27
2022-08-10T04:56:37.479Z,99872.23
2022-08-10T04:59:06.927Z,99870.27
2022-08-10T05:02:13.543Z,99874.34
2022-08-10T05:04:35.529Z,99878.86
2022-08-10T05:07:09.258Z,99879.41
2022-08-10T05:10:04.247Z,99879.30
2022-08-10T05:12:29.534Z,99882.95
2022-08-10T05:14:57.450Z,99882.02
2022-08-10T05:17:25.179Z,99876.16
2022-08-10T05:20:02.065Z,99879.48
2022-08-10T05:22:43.738Z,99875.42
2022-08-10T05:25:14.672Z,99872.83
2022-08-10T05:27:43.515Z,99871.33
2022-08-10T05:30:15.733Z,99873.38
2022-08-10T05:32:56.434Z,99873.79
2022-08-10T05:35:28.513Z,99876.91
2022-08-10T05:38:12.291Z,99878.20
2022-08-10T05:40:46.651Z,99881.75
2022-08-10T05:43:16.960Z,99883.75
2022-08-10T05:46:17.246Z,99881.34
2022-08-10T05:48:54.953Z,99882.95
2022-08-10T05:51:23.419Z,99882.17
2022-08-10T05:54:01.207Z,99888.16
2022-08-10T05:56:54.834Z,99885.05
2022-08-10T06:00:29.531Z,99886.63
2022-08-10T06:02:41.796Z,99890.89
2022-08-10T06:05:12.140Z,99886.92
2022-08-10T06:08:01.314Z,99887.27
2022-08-10T06:10:32.448Z,99885.35
2022-08-10T06:13:26.751Z,99884.48
2022-08-10T06:16:02.669Z,99877.64
2022-08-10T06:18:31.177Z,99869.54
2022-08-10T06:21:00.835Z,99873.10
2022-08-10T06:23:30.509Z,99868.46
2022-08-10T06:26:11.254Z,99878.48
2022-08-10T06:29:02.800Z,99881.13
2022-08-10T06:31:47.905Z,99879.54
2022-08-10T06:34:27.036Z,99879.64
2022-08-10T06:36:57.933Z,99879.40
2022-08-10T06:39:34.932Z,99880.56
2022-08-10T06:42:29.539Z,99882.50
2022-08-10T06:45:01.899Z,99879.20
2022-08-10T06:47:54.153Z,99880.29
2022-08-10T06:50:45.391Z,99871.91
2022-08-10T06:53:18.306Z,99875.63
2022-08-10T06:55:56.504Z,99880.85
2022-08-10T06:58:29.105Z,99877.36
2022-08-10T07:00:57.002Z,99872.22
2022-08-10T07:03:34.193Z,99874.51
2022-08-10T07:06:04.793Z,99872.52
2022-08-10T07:08:34.444Z,99875.77
2022-08-10T07:11:03.667Z,99873.85
2022-08-10T07:14:14.259Z,99867.09
2022-08-10T07:16:22.079Z,99866.20
2022-08-10T07:18:49.951Z,99868.97
2022-08-10T07:21:18.109Z,99865.45
2022-08-10T07:23:57.740Z,99861.84
2022-08-10T07:26:30.963Z,99859.51
2022-08-10T07:29:00.619Z,99856.92
2022-08-10T07:31:54.895Z,99857.24
2022-08-10T07:34:21.676Z,99850.78
2022-08-10T07:37:03.204Z,99855.63
2022-08-10T07:40:02.103Z,99857.34
2022-08-10T07:42:25.550Z,99854.64
2022-08-10T07:44:53.431Z,99853.98
2022-08-10T07:47:46.187Z,99852.61
2022-08-10T07:50:19.162Z,99854.38
2022-08-10T07:52:48.931Z,99858.70
2022-08-10T07:55:19.638Z,99854.88
2022-08-10T07:58:08.917Z,99854.48
2022-08-10T08:00:37.928Z,99853.58
2022-08-10T08:03:07.676Z,99856.79
2022-08-10T08:05:59.054Z,99854.52
2022-08-10T08:08:24.936Z,99854.18
2022-08-10T08:10:58.135Z,99850.93
2022-08-10T08:13:27.876Z,99850.77
2022-08-10T08:16:20.612Z,99855.29
2022-08-10T08:19:03.634Z,99854.66
2022-08-10T08:24:08.541Z,99852.35
2022-08-10T08:24:32.374Z,99845.61
2022-08-10T08:27:03.503Z,99848.46
2022-08-10T08:29:38.317Z,99846.73
2022-08-10T08:32:06.955Z,99851.15
2022-08-10T08:34:38.725Z,99846.71
2022-08-10T08:37:09.954Z,99843.65
2022-08-10T08:39:38.624Z,99842.08
2022-08-10T08:42:18.308Z,99836.52
2022-08-10T08:45:23.326Z,99838.77
2022-08-10T08:48:10.120Z,99832.36
2022-08-10T08:51:01.875Z,99832.27
2022-08-10T08:54:07.737Z,99830.23
2022-08-10T08:56:50.196Z,99824.30
2022-08-10T08:59:31.267Z,99829.15
2022-08-10T09:02:05.569Z,99822.80
2022-08-10T09:04:55.833Z,99830.42
2022-08-10T09:08:01.746Z,99823.96
2022-08-10T09:11:19.714Z,99826.46
2022-08-10T09:14:17.218Z,99823.64
2022-08-10T09:17:03.418Z,99816.30
2022-08-10T09:19:49.625Z,99818.63
2022-08-10T09:22:57.460Z,99818.23
2022-08-10T09:25:34.420Z,99815.77
2022-08-10T09:28:08.093Z,99818.63
2022-08-10T09:31:10.196Z,99815.55
2022-08-10T09:36:21.166Z,99817.61
2022-08-10T09:37:08.668Z,99818.88
2022-08-10T09:40:56.111Z,99819.58
2022-08-10T09:43:26.199Z,99807.08
2022-08-10T09:46:33.452Z,99798.50
2022-08-10T09:49:10.717Z,99787.43
2022-08-10T09:52:02.040Z,99784.23
2022-08-10T09:54:54.300Z,99784.92
2022-08-10T09:57:46.521Z,99795.48
2022-08-10T10:00:30.837Z,99787.91
2022-08-10T10:03:18.345Z,99779.07
2022-08-10T10:06:03.472Z,99780.66
2022-08-10T10:09:10.054Z,99783.39
2022-08-10T10:12:09.723Z,99778.59
2022-08-10T10:15:24.681Z,99776.42
2022-08-10T10:18:00.417Z,99776.66
2022-08-10T10:20:49.851Z,99772.94
2022-08-10T10:23:51.395Z,99769.33
2022-08-10T10:26:57.136Z,99765.30
2022-08-10T10:29:58.249Z,99763.36
2022-08-10T10:32:57.305Z,99768.27
2022-08-10T10:35:50.354Z,99769.88
2022-08-10T10:38:21.487Z,99765.02
2022-08-10T10:40:59.459Z,99766.10
2022-08-10T10:43:57.926Z,99764.00
2022-08-10T10:46:52.107Z,99772.84
2022-08-10T10:49:31.253Z,99773.09
2022-08-10T10:52:20.507Z,99771.96
2022-08-10T10:55:15.312Z,99764.16
2022-08-10T10:58:07.679Z,99763.41
2022-08-10T11:00:58.153Z,99755.92
2022-08-10T11:03:44.329Z,99752.25
2022-08-10T11:06:40.839Z,99749.59
2022-08-10T11:10:05.187Z,99747.17
2022-08-10T11:12:25.422Z,99745.13
2022-08-10T11:15:42.875Z,99739.85
2022-08-10T11:18:35.825Z,99743.25
2022-08-10T11:21:31.597Z,99737.89
2022-08-10T11:24:42.639Z,99738.95
2022-08-10T11:27:17.424Z,99734.54
2022-08-10T11:30:11.087Z,99732.81
2022-08-10T11:33:12.621Z,99732.45
2022-08-10T11:35:48.587Z,99725.33
2022-08-10T11:39:11.136Z,99727.05
2022-08-10T11:42:07.691Z,99728.61
2022-08-10T11:44:59.934Z,99728.84
2022-08-10T11:47:52.652Z,99732.03
2022-08-10T11:50:23.062Z,99740.91
2022-08-10T11:53:11.752Z,99734.10
2022-08-10T11:55:41.973Z,99729.99
2022-08-10T11:58:31.715Z,99723.09
2022-08-10T12:01:04.093Z,99714.92
2022-08-10T12:03:35.017Z,99711.08
2022-08-10T12:06:05.819Z,99715.80
2022-08-10T12:10:03.550Z,99708.09
2022-08-10T12:11:26.523Z,99707.64
2022-08-10T12:14:22.627Z,99703.77
2022-08-10T12:16:57.505Z,99707.27
2022-08-10T12:19:58.996Z,99696.34
2022-08-10T12:22:34.098Z,99700.48
2022-08-10T12:25:10.735Z,99703.97
2022-08-10T12:27:52.552Z,99697.59
2022-08-10T12:30:29.488Z,99691.88
2022-08-10T12:33:04.555Z,99690.63
2022-08-10T12:36:16.935Z,99687.51
2022-08-10T12:39:22.206Z,99690.23
2022-08-10T12:42:03.259Z,99690.23
2022-08-10T12:44:50.140Z,99691.67
2022-08-10T12:47:31.708Z,99698.02
2022-08-10T12:50:32.876Z,99689.84
2022-08-10T12:53:13.742Z,99692.90
2022-08-10T12:55:42.666Z,99684.23
2022-08-10T12:58:57.396Z,99684.67
2022-08-10T13:01:16.081Z,99687.61
2022-08-10T13:04:22.814Z,99692.65
2022-08-10T13:06:42.634Z,99689.77
2022-08-10T13:09:13.550Z,99686.02
2022-08-10T13:12:38.094Z,99684.64
2022-08-10T13:14:54.073Z,99679.69
2022-08-10T13:17:32.539Z,99675.71
2022-08-10T13:20:34.309Z,99672.23
2022-08-10T13:23:10.225Z,99674.89
2022-08-10T13:25:45.468Z,99670.73
2022-08-10T13:28:35.790Z,99673.33
2022-08-10T13:31:11.360Z,99664.11
2022-08-10T13:34:43.131Z,99663.75
2022-08-10T13:37:02.485Z,99660.28
2022-08-10T13:39:59.424Z,99660.59
2022-08-10T13:42:32.053Z,99649.41
2022-08-10T13:45:09.204Z,99648.98
2022-08-10T13:47:48.721Z,99641.36
2022-08-10T13:50:33.129Z,99642.40
2022-08-10T13:53:11.485Z,99638.58
2022-08-10T13:55:57.350Z,99638.65
2022-08-10T13:58:32.039Z,99639.75
2022-08-10T14:01:03.013Z,99636.39
2022-08-10T14:03:37.532Z,99629.62
2022-08-10T14:06:07.534Z,99629.65
2022-08-10T14:08:37.979Z,99624.95
2022-08-10T14:11:12.363Z,99623.50
2022-08-10T14:14:04.268Z,99619.64
2022-08-10T14:16:34.743Z,99617.58
2022-08-10T14:19:10.130Z,99618.10
2022-08-10T14:21:40.459Z,99617.35
2022-08-10T14:24:24.637Z,99617.52
2022-08-10T14:27:02.506Z,99615.52
2022-08-10T14:29:31.629Z,99607.49
2022-08-10T14:32:02.541Z,99606.40
2022-08-10T14:36:16.226Z,99602.98
2022-08-10T14:37:30.000Z,99609.48
2022-08-10T14:40:11.759Z,99608.59
2022-08-10T14:43:11.705Z,99612.98
2022-08-10T14:45:45.145Z,99611.55
2022-08-10T14:48:23.222Z,99612.42
2022-08-10T14:51:02.604Z,99615.44
2022-08-10T14:53:35.356Z,99609.23
2022-08-10T14:56:08.462Z,99602.32
2022-08-10T14:58:59.110Z,99605.45
2022-08-10T15:02:00.401Z,99604.63
2022-08-10T15:04:23.886Z,99603.11
2022-08-10T15:06:57.621Z,99614.35
2022-08-10T15:09:59.682Z,99617.67
2022-08-10T15:12:27.065Z,99622.60
2022-08-10T15:15:00.830Z,99625.72
2022-08-10T15:17:34.798Z,99623.35
2022-08-10T15:20:30.042Z,99629.00
2022-08-10T15:23:05.995Z,99626.45
2022-08-10T15:25:39.815Z,99627.05
2022-08-10T15:29:08.464Z,99626.41
2022-08-10T15:31:18.495Z,99628.58
2022-08-10T15:34:10.931Z,99632.27
2022-08-10T15:37:39.702Z,99627.27
2022-08-10T15:40:25.913Z,99621.97
2022-08-10T15:43:20.909Z,99620.29
2022-08-10T15:46:04.779Z,99617.02
2022-08-10T15:48:48.284Z,99614.48
2022-08-10T15:51:23.026Z,99612.64
2022-08-10T15:54:03.196Z,99613.86
2022-08-10T15:56:39.893Z,99617.31
2022-08-10T15:59:17.227Z,99620.15
2022-08-10T16:02:14.287Z,99625.67
2022-08-10T16:04:57.554Z,99618.25
2022-08-10T16:07:46.007Z,99624.30
2022-08-10T16:10:28.119Z,99621.70
2022-08-10T16:14:00.814Z,99623.52
2022-08-10T16:15:56.238Z,99622.15
2022-08-10T16:18:30.173Z,99617.42
2022-08-10T16:21:00.195Z,99616.02
2022-08-10T16:24:13.089Z,99617.34
2022-08-10T16:26:46.568Z,99621.11
2022-08-10T16:29:20.013Z,99624.90
2022-08-10T16:31:59.717Z,99624.29
2022-08-10T16:34:30.838Z,99628.09
2022-08-10T16:37:04.133Z,99626.48
2022-08-10T16:39:57.650Z,99629.29
2022-08-10T16:42:31.218Z,99631.08
2022-08-10T16:45:15.167Z,99631.73
2022-08-10T16:47:51.844Z,99635.00
2022-08-10T16:50:27.622Z,99632.20
2022-08-10T16:53:00.460Z,99632.69
2022-08-10T16:55:48.264Z,99633.31
2022-08-10T16:58:25.323Z,99631.52
2022-08-10T17:01:00.927Z,99634.85
2022-08-10T17:04:05.555Z,99633.91
2022-08-10T17:06:42.522Z,99631.77
2022-08-10T17:09:19.435Z,99630.87
2022-08-10T17:11:51.714Z,99634.34
2022-08-10T17:14:24.260Z,99636.33
2022-08-10T17:17:00.426Z,99634.64
2022-08-10T17:19:35.024Z,99632.41
2022-08-10T17:22:10.892Z,99633.38
2022-08-10T17:25:06.114Z,99632.77
2022-08-10T17:28:04.125Z,99631.70
2022-08-10T17:30:35.453Z,99634.27
2022-08-10T17:33:19.757Z,99629.11
2022-08-10T17:35:51.668Z,99627.27
2022-08-10T17:38:25.068Z,99626.09
2022-08-10T17:41:08.547Z,99624.55
2022-08-10T17:44:00.763Z,99624.58
2022-08-10T17:46:27.444Z,99629.47
2022-08-10T17:48:55.810Z,99631.46
2022-08-10T17:51:28.686Z,99635.64
2022-08-10T17:54:00.684Z,99634.64
2022-08-10T17:56:33.644Z,99633.03
2022-08-10T17:59:09.725Z,99636.30
2022-08-10T18:02:01.246Z,99640.14
2022-08-10T18:04:41.212Z,99648.31
2022-08-10T18:07:11.668Z,99644.29
2022-08-10T18:09:44.474Z,99647.46
2022-08-10T18:12:19.083Z,99645.69
2022-08-10T18:14:49.806Z,99646.59
2022-08-10T18:17:23.511Z,99649.66
2022-08-10T18:19:58.220Z,99654.15
2022-08-10T18:22:27.998Z,99658.00
2022-08-10T18:24:58.965Z,99658.52
2022-08-10T18:28:01.177Z,99658.64
2022-08-10T18:30:19.304Z,99667.11
2022-08-10T18:32:53.468Z,99671.88
2022-08-10T18:35:34.591Z,99672.54
2022-08-10T18:38:06.762Z,99674.20
2022-08-10T18:40:38.546Z,99677.92
2022-08-10T18:44:05.003Z,99675.05
2022-08-10T18:46:02.829Z,99672.09
2022-08-10T18:48:41.014Z,99677.02
2022-08-10T18:51:11.412Z,99677.20
2022-08-10T18:53:50.748Z,99675.48
2022-08-10T18:56:21.195Z,99678.34
2022-08-10T18:59:06.385Z,99669.88
2022-08-10T19:01:55.898Z,99678.89
2022-08-10T19:05:30.064Z,99674.84
2022-08-10T19:08:33.061Z,99672.44
2022-08-10T19:11:13.880Z,99670.19
2022-08-10T19:13:59.624Z,99671.46
2022-08-10T19:17:05.622Z,99672.59
2022-08-10T19:19:45.444Z,99670.61
2022-08-10T19:22:25.905Z,99672.42
2022-08-10T19:25:05.891Z,99675.85
2022-08-10T19:27:46.223Z,99684.44
2022-08-10T19:30:15.865Z,99682.88
2022-08-10T19:33:04.669Z,99687.17
2022-08-10T19:36:12.265Z,99690.70
2022-08-10T19:38:51.304Z,99697.30
2022-08-10T19:41:32.673Z,99699.82
2022-08-10T19:44:26.350Z,99700.36
2022-08-10T19:47:06.181Z,99701.20
2022-08-10T19:50:01.949Z,99701.91
2022-08-10T19:52:45.240Z,99702.83
2022-08-10T19:55:25.093Z,99698.40
2022-08-10T19:58:02.906Z,99696.69
2022-08-10T20:01:03.430Z,99696.26
2022-08-10T20:03:50.318Z,99694.06
2022-08-10T20:06:40.008Z,99691.23
2022-08-10T20:09:16.523Z,99693.45
2022-08-10T20:12:03.413Z,99697.25
2022-08-10T20:14:42.598Z,99696.08
2022-08-10T20:17:51.549Z,99698.43
2022-08-10T20:20:36.117Z,99694.36
2022-08-10T20:23:21.598Z,99693.08
2022-08-10T20:26:01.308Z,99692.58
2022-08-10T20:28:43.794Z,99688.58
2022-08-10T20:31:17.628Z,99694.73
2022-08-10T20:34:01.481Z,99696.33
2022-08-10T20:36:39.406Z,99697.92
2022-08-10T20:39:16.602Z,99698.02
2022-08-10T20:41:53.936Z,99694.20
2022-08-10T20:44:27.630Z,99696.59
2022-08-10T20:47:18.675Z,99697.73
2022-08-10T20:50:06.565Z,99703.94
2022-08-10T20:52:35.873Z,99703.77
2022-08-10T20:55:09.905Z,99704.29
2022-08-10T20:57:57.592Z,99703.20
2022-08-10T21:01:09.944Z,99698.06
2022-08-10T21:03:44.635Z,99690.84
2022-08-10T21:06:44.575Z,99690.38
2022-08-10T21:09:32.837Z,99688.80
2022-08-10T21:12:34.303Z,99691.63
2022-08-10T21:15:20.835Z,99687.02
2022-08-10T21:18:34.526Z,99693.75
2022-08-10T21:21:41.545Z,99695.80
2022-08-10T21:24:25.731Z,99692.10
2022-08-10T21:27:08.283Z,99691.99
2022-08-10T21:29:56.124Z,99692.31
2022-08-10T21:32:30.306Z,99691.14
2022-08-10T21:35:07.913Z,99689.59
2022-08-10T21:37:58.763Z,99685.95
2022-08-10T21:41:18.947Z,99694.16
2022-08-10T21:44:16.810Z,99701.19
2022-08-10T21:47:43.490Z,99701.09
2022-08-10T21:50:45.739Z,99699.58
2022-08-10T21:53:46.076Z,99696.77
2022-08-10T21:56:50.693Z,99696.60
2022-08-10T21:59:58.920Z,99694.16
2022-08-10T22:02:51.080Z,99693.73
2022-08-10T22:05:53.685Z,99692.06
2022-08-10T22:08:45.065Z,99693.02
2022-08-10T22:11:39.185Z,99690.45
2022-08-10T22:18:00.792Z,99686.73
2022-08-10T22:20:57.687Z,99679.41
2022-08-10T22:23:44.074Z,99686.46
2022-08-10T22:30:11.421Z,99685.92
2022-08-10T22:31:26.142Z,99681.48
2022-08-10T22:31:28.037Z,99684.61
2022-08-10T22:33:06.871Z,99681.96
2022-08-10T22:36:16.536Z,99688.65
2022-08-10T22:40:10.039Z,99691.48
2022-08-10T22:42:58.768Z,99697.22
2022-08-10T22:45:55.297Z,99690.83
2022-08-10T22:48:41.553Z,99692.21
2022-08-10T22:51:16.610Z,99688.36
2022-08-10T22:54:30.878Z,99693.27
2022-08-10T22:57:20.355Z,99679.55
2022-08-10T22:59:49.685Z,99679.89
2022-08-10T23:02:33.053Z,99685.79
2022-08-10T23:05:05.813Z,99684.10
2022-08-10T23:07:41.390Z,99686.64
2022-08-10T23:10:11.914Z,99681.46
2022-08-10T23:12:56.981Z,99680.56
2022-08-10T23:15:55.511Z,99679.23
2022-08-10T23:18:55.217Z,99676.73
2022-08-10T23:21:28.661Z,99680.91
2022-08-10T23:24:25.582Z,99672.19
2022-08-10T23:26:55.155Z,99668.69
2022-08-10T23:29:29.076Z,99676.77
2022-08-10T23:32:07.531Z,99675.08
2022-08-10T23:34:37.060Z,99675.98
2022-08-10T23:37:09.128Z,99676.07
2022-08-10T23:39:40.772Z,99679.02
2022-08-10T23:42:13.002Z,99681.65
2022-08-10T23:44:44.282Z,99677.86
2022-08-10T23:47:15.973Z,99678.00
2022-08-10T23:49:45.353Z,99674.11
2022-08-10T23:52:18.597Z,99677.33
2022-08-10T23:54:49.906Z,99672.10
2022-08-10T23:57:21.723Z,99672.77
2022-08-10T23:59:52.378Z,99671.20
